Time;durP1;ratioP1;P1;durP2;ratioP2;P2;SDS_P1;SDS_P2;PMS_P1;PMS_P2;Temp;Humidity;BMP_temperature;BMP_pressure;BME280_temperature;BME280_humidity;BME280_pressure;Samples;Min_cycle;Max_cycle;Signal;HPM_P1;HPM_P2
2021/12/28 00:00:23;;;;;;;21.65;13.20;;;5.00;99.90;;;;;;4987368;28;20041;-87
2021/12/28 00:02:49;;;;;;;23.67;13.75;;;4.60;99.90;;;;;;5009869;28;20093;-87
2021/12/28 00:05:16;;;;;;;24.27;13.40;;;3.70;99.90;;;;;;5019593;28;20041;-87
2021/12/28 00:07:42;;;;;;;23.50;13.18;;;3.40;99.90;;;;;;4989793;28;20294;-87
2021/12/28 00:10:11;;;;;;;24.00;13.52;;;3.40;99.90;;;;;;4997103;28;20548;-88
2021/12/28 00:12:38;;;;;;;23.98;14.10;;;4.60;99.90;;;;;;5011091;28;20049;-87
2021/12/28 00:17:59;;;;;;;24.80;13.52;;;3.50;99.90;;;;;;5027027;28;20072;-88
2021/12/28 00:20:47;;;;;;;24.67;13.00;;;3.60;99.90;;;;;;5011124;28;21360;-88
2021/12/28 00:23:19;;;;;;;26.30;14.25;;;4.00;99.90;;;;;;5008128;28;20502;-87
2021/12/28 00:25:50;;;;;;;28.42;14.70;;;4.70;99.90;;;;;;5027589;28;20037;-88
2021/12/28 00:28:16;;;;;;;26.58;14.52;;;4.40;99.90;;;;;;4996037;28;20090;-87
2021/12/28 00:30:43;;;;;;;22.50;12.82;;;3.60;99.90;;;;;;5004000;28;20053;-88
2021/12/28 00:33:09;;;;;;;23.90;14.00;;;4.90;99.90;;;;;;5019847;28;20518;-87
2021/12/28 00:35:38;;;;;;;25.67;13.95;;;3.60;99.90;;;;;;4996078;28;20067;-87
2021/12/28 00:38:04;;;;;;;22.35;13.35;;;3.80;99.90;;;;;;5002535;28;20579;-87
2021/12/28 00:40:31;;;;;;;23.83;13.38;;;4.40;99.90;;;;;;4995139;28;20033;-87
2021/12/28 00:42:57;;;;;;;24.40;14.05;;;4.30;99.90;;;;;;5003571;28;20042;-87
2021/12/28 00:45:23;;;;;;;24.70;13.98;;;5.20;99.90;;;;;;5004503;28;20042;-87
2021/12/28 00:47:49;;;;;;;22.00;13.32;;;4.00;99.90;;;;;;4989342;28;20061;-88
2021/12/28 00:50:17;;;;;;;28.55;16.30;;;3.70;99.90;;;;;;5019305;28;20112;-88
2021/12/28 00:52:44;;;;;;;24.02;14.10;;;3.80;99.90;;;;;;5002716;28;20040;-88
2021/12/28 00:55:11;;;;;;;26.80;14.65;;;4.80;99.90;;;;;;5008170;28;20044;-87
2021/12/28 00:57:37;;;;;;;23.05;13.93;;;3.90;99.90;;;;;;5001067;28;20477;-88
2021/12/28 01:00:06;;;;;;;28.63;15.45;;;5.30;99.90;;;;;;5017074;28;20045;-87
2021/12/28 01:02:31;;;;;;;27.88;15.23;;;3.90;99.90;;;;;;5015356;28;20037;-87
2021/12/28 01:04:57;;;;;;;23.85;14.48;;;4.40;99.90;;;;;;5019828;28;20510;-87
2021/12/28 01:07:23;;;;;;;27.23;15.93;;;5.70;99.90;;;;;;4987643;28;20138;-89
2021/12/28 01:09:49;;;;;;;28.20;15.98;;;4.00;99.90;;;;;;5034319;28;20052;-88
2021/12/28 01:12:14;;;;;;;28.05;15.40;;;4.90;99.90;;;;;;4987788;28;20052;-88
2021/12/28 01:14:40;;;;;;;27.13;15.80;;;4.80;99.90;;;;;;5002932;28;20049;-88
2021/12/28 01:17:07;;;;;;;30.55;16.20;;;5.90;99.90;;;;;;4986251;28;20262;-88
2021/12/28 01:19:33;;;;;;;27.45;16.05;;;4.40;99.90;;;;;;4985336;28;20143;-87
2021/12/28 01:22:01;;;;;;;29.08;16.42;;;4.90;99.90;;;;;;5002759;28;20052;-88
2021/12/28 01:24:29;;;;;;;29.85;16.92;;;4.90;99.90;;;;;;5001392;28;20047;-88
2021/12/28 01:26:54;;;;;;;28.58;16.35;;;5.10;99.90;;;;;;4996317;28;20144;-88
2021/12/28 01:29:20;;;;;;;31.77;17.08;;;5.80;99.90;;;;;;4990373;28;20045;-87
2021/12/28 01:31:46;;;;;;;29.52;16.63;;;4.00;99.90;;;;;;5017010;28;20049;-87
2021/12/28 01:34:12;;;;;;;37.33;19.50;;;5.00;99.90;;;;;;5023025;28;20096;-88
2021/12/28 01:36:38;;;;;;;32.42;18.35;;;4.10;99.90;;;;;;5012492;28;20037;-88
2021/12/28 01:39:05;;;;;;;33.33;17.85;;;4.80;99.90;;;;;;5012816;28;20046;-88
2021/12/28 01:41:32;;;;;;;39.75;19.30;;;4.10;99.90;;;;;;5004616;28;20037;-87
2021/12/28 01:43:59;;;;;;;34.13;19.42;;;4.20;99.90;;;;;;4998105;28;20044;-87
2021/12/28 01:46:26;;;;;;;35.30;18.45;;;4.20;99.90;;;;;;5012972;28;20053;-88
2021/12/28 01:48:51;;;;;;;36.55;19.45;;;4.20;99.90;;;;;;5002997;28;20034;-88
2021/12/28 01:51:21;;;;;;;36.88;19.60;;;4.20;99.90;;;;;;5012289;28;20041;-86
2021/12/28 01:53:51;;;;;;;36.17;18.52;;;4.40;99.90;;;;;;5014846;28;20669;-88
2021/12/28 01:56:23;;;;;;;35.90;19.73;;;4.80;99.90;;;;;;5013313;28;20088;-87
2021/12/28 01:58:50;;;;;;;44.05;22.08;;;4.60;99.90;;;;;;5022165;28;20049;-87
2021/12/28 02:01:16;;;;;;;44.72;22.00;;;4.30;99.90;;;;;;5006701;28;20164;-88
2021/12/28 02:03:43;;;;;;;51.35;24.00;;;4.40;99.90;;;;;;5009391;28;20501;-87
2021/12/28 02:06:10;;;;;;;41.83;21.15;;;4.40;99.90;;;;;;5009143;28;20384;-87
2021/12/28 02:08:37;;;;;;;47.05;22.10;;;5.30;99.90;;;;;;5021253;28;20055;-87
2021/12/28 02:11:04;;;;;;;44.13;21.67;;;4.40;99.90;;;;;;5007708;28;20049;-87
2021/12/28 02:13:30;;;;;;;43.97;22.52;;;5.20;99.90;;;;;;4994294;28;20047;-88
2021/12/28 02:15:58;;;;;;;40.20;20.70;;;4.40;99.90;;;;;;5007447;28;22052;-87
2021/12/28 02:18:25;;;;;;;61.35;25.50;;;4.40;99.90;;;;;;5008121;28;20041;-87
2021/12/28 02:20:53;;;;;;;58.90;24.10;;;4.50;99.90;;;;;;5005925;28;20457;-87
2021/12/28 02:23:19;;;;;;;43.92;22.42;;;5.60;99.90;;;;;;4992661;28;20875;-87
2021/12/28 02:25:46;;;;;;;43.22;21.30;;;4.50;99.90;;;;;;5004367;28;20551;-88
2021/12/28 02:28:13;;;;;;;59.45;24.38;;;4.50;99.90;;;;;;5002487;28;20426;-86
2021/12/28 02:30:42;;;;;;;47.00;23.15;;;5.90;99.90;;;;;;4993788;28;20103;-87
2021/12/28 02:33:07;;;;;;;61.78;24.73;;;5.60;99.90;;;;;;5023156;28;20148;-88
2021/12/28 02:35:35;;;;;;;79.72;28.17;;;5.70;99.90;;;;;;5025945;28;20617;-86
2021/12/28 02:38:02;;;;;;;61.83;26.05;;;4.70;99.90;;;;;;4992498;28;20046;-87
2021/12/28 02:40:30;;;;;;;76.05;27.13;;;4.50;99.90;;;;;;5018875;28;20045;-88
2021/12/28 02:42:57;;;;;;;66.65;27.52;;;4.60;99.90;;;;;;5022653;28;20075;-87
2021/12/28 02:45:27;;;;;;;80.20;27.33;;;4.60;99.90;;;;;;4991611;28;20044;-87
2021/12/28 02:47:53;;;;;;;62.58;25.88;;;4.60;99.90;;;;;;5026454;28;20044;-88
2021/12/28 02:50:26;;;;;;;69.28;27.80;;;6.10;99.90;;;;;;5015036;28;20045;-87
2021/12/28 02:52:52;;;;;;;46.88;23.58;;;4.60;99.90;;;;;;5012342;28;20041;-87
2021/12/28 02:55:22;;;;;;;72.97;26.98;;;4.70;99.90;;;;;;5010072;28;20042;-88
2021/12/28 02:57:53;;;;;;;67.47;25.92;;;4.70;99.90;;;;;;5028070;28;20081;-88
2021/12/28 03:00:28;;;;;;;83.88;29.30;;;5.90;99.90;;;;;;5015338;28;20029;-87
2021/12/28 03:02:55;;;;;;;133.23;33.17;;;4.70;99.90;;;;;;5026194;28;20038;-87
2021/12/28 03:05:21;;;;;;;68.15;26.52;;;4.70;99.90;;;;;;4996712;28;20706;-87
2021/12/28 03:07:46;;;;;;;67.45;26.80;;;4.70;99.90;;;;;;4997358;28;20130;-88
2021/12/28 03:10:12;;;;;;;146.88;32.78;;;6.50;99.90;;;;;;5008356;28;20131;-88
2021/12/28 03:12:38;;;;;;;65.93;27.48;;;6.30;99.90;;;;;;4981411;28;20047;-88
2021/12/28 03:15:04;;;;;;;58.88;25.40;;;6.00;99.90;;;;;;4995930;28;20057;-88
2021/12/28 03:17:30;;;;;;;60.65;25.10;;;4.70;99.90;;;;;;5012507;28;20077;-88
2021/12/28 03:19:55;;;;;;;98.68;30.77;;;4.70;99.90;;;;;;4992354;28;20510;-87
2021/12/28 03:22:21;;;;;;;90.15;29.00;;;4.70;99.90;;;;;;4996292;28;20034;-88
2021/12/28 03:24:47;;;;;;;106.45;32.15;;;5.90;99.90;;;;;;5013526;28;20478;-87
2021/12/28 03:27:12;;;;;;;69.93;27.40;;;4.70;99.90;;;;;;5012469;28;20029;-87
2021/12/28 03:29:38;;;;;;;63.85;26.95;;;5.20;99.90;;;;;;5012993;28;20120;-88
2021/12/28 03:32:04;;;;;;;101.40;31.42;;;4.80;99.90;;;;;;4996830;28;20041;-87
2021/12/28 03:34:30;;;;;;;94.95;28.63;;;4.80;99.90;;;;;;5007761;28;20037;-87
2021/12/28 03:36:56;;;;;;;65.50;26.98;;;5.80;99.90;;;;;;5008553;28;20037;-88
2021/12/28 03:39:21;;;;;;;56.17;26.92;;;4.80;99.90;;;;;;5045171;28;20049;-89
2021/12/28 03:41:47;;;;;;;264.10;38.35;;;4.80;99.90;;;;;;4996762;28;20033;-88
2021/12/28 03:44:14;;;;;;;73.20;28.55;;;4.90;99.90;;;;;;5024505;28;21030;-87
2021/12/28 03:46:40;;;;;;;78.85;28.13;;;5.10;99.90;;;;;;4973316;28;20038;-88
2021/12/28 03:49:06;;;;;;;84.38;29.17;;;5.60;99.90;;;;;;5007135;28;20091;-89
2021/12/28 03:51:32;;;;;;;90.72;30.80;;;4.80;99.90;;;;;;5004418;28;20405;-88
2021/12/28 03:53:58;;;;;;;63.08;26.13;;;4.80;99.90;;;;;;5002879;28;20041;-88
2021/12/28 03:56:24;;;;;;;84.47;28.67;;;4.80;99.90;;;;;;5009983;28;20038;-88
2021/12/28 03:58:51;;;;;;;99.50;30.98;;;5.90;99.90;;;;;;5009115;28;20649;-88
2021/12/28 04:01:22;;;;;;;63.67;27.02;;;5.80;99.90;;;;;;4989949;28;20042;-88
2021/12/28 04:03:48;;;;;;;74.03;28.92;;;4.90;99.90;;;;;;5017284;28;20514;-88
2021/12/28 04:06:14;;;;;;;103.20;33.60;;;4.90;99.90;;;;;;5021682;28;20124;-87
2021/12/28 04:08:42;;;;;;;67.82;28.52;;;4.90;99.90;;;;;;4988994;28;20409;-87
2021/12/28 04:13:50;;;;;;;116.15;31.58;;;6.20;99.90;;;;;;5017770;28;20229;-88
2021/12/28 04:16:17;;;;;;;68.35;28.15;;;6.40;99.90;;;;;;5003070;28;20061;-88
2021/12/28 04:18:43;;;;;;;96.28;30.85;;;5.60;99.90;;;;;;5005099;28;20053;-88
2021/12/28 04:21:10;;;;;;;71.57;27.35;;;6.10;99.90;;;;;;5020095;28;20033;-88
2021/12/28 04:23:36;;;;;;;283.70;41.30;;;5.60;99.90;;;;;;4988946;28;20033;-87
2021/12/28 04:26:03;;;;;;;294.33;41.53;;;4.90;99.90;;;;;;5004636;28;20506;-87
2021/12/28 04:28:29;;;;;;;425.90;47.83;;;6.40;99.90;;;;;;5021331;28;20486;-87
2021/12/28 04:30:55;;;;;;;412.55;47.28;;;5.40;99.90;;;;;;5012933;28;20394;-88
2021/12/28 04:33:21;;;;;;;221.05;36.92;;;6.30;99.90;;;;;;5028204;28;20041;-88
2021/12/28 04:35:47;;;;;;;194.77;34.95;;;4.90;99.90;;;;;;5011502;28;20037;-88
2021/12/28 04:38:13;;;;;;;80.00;29.08;;;4.90;99.90;;;;;;5017171;28;20048;-87
2021/12/28 04:40:39;;;;;;;82.28;29.85;;;4.90;99.90;;;;;;5010072;28;20092;-88
2021/12/28 04:43:06;;;;;;;237.88;41.35;;;4.90;99.90;;;;;;5012237;28;20042;-88
2021/12/28 04:45:32;;;;;;;328.05;43.50;;;5.10;99.90;;;;;;4996184;28;20118;-88
2021/12/28 04:47:58;;;;;;;372.67;46.28;;;4.90;99.90;;;;;;5012651;28;20383;-88
2021/12/28 04:50:23;;;;;;;122.70;32.78;;;5.90;99.90;;;;;;4998634;28;20055;-88
2021/12/28 04:52:49;;;;;;;361.48;46.55;;;5.80;99.90;;;;;;5014091;28;20053;-88
2021/12/28 04:55:17;;;;;;;103.03;30.60;;;5.00;99.90;;;;;;4995249;28;20482;-88
2021/12/28 04:57:45;;;;;;;124.78;32.38;;;5.80;99.90;;;;;;5023925;28;20542;-84
2021/12/28 05:00:17;;;;;;;186.65;35.17;;;5.00;99.90;;;;;;5007052;28;20132;-84
2021/12/28 05:02:43;;;;;;;105.30;31.02;;;5.00;99.90;;;;;;4995415;28;20971;-85
2021/12/28 05:05:10;;;;;;;146.30;33.67;;;5.70;99.90;;;;;;5002649;28;20037;-85
2021/12/28 05:07:36;;;;;;;162.15;34.72;;;5.10;99.90;;;;;;4985152;28;20092;-84
2021/12/28 05:10:03;;;;;;;197.93;35.00;;;5.10;99.90;;;;;;4987048;28;20498;-84
2021/12/28 05:12:29;;;;;;;201.00;36.78;;;5.10;99.90;;;;;;5001782;28;20164;-84
2021/12/28 05:14:58;;;;;;;85.25;30.00;;;5.80;99.90;;;;;;4992504;28;20135;-84
2021/12/28 05:17:24;;;;;;;127.93;31.05;;;6.40;99.90;;;;;;4990559;28;20045;-84
2021/12/28 05:19:50;;;;;;;140.27;32.00;;;5.60;99.90;;;;;;5005664;28;20110;-84
2021/12/28 05:22:16;;;;;;;337.15;41.97;;;5.90;99.90;;;;;;4977402;28;20033;-84
2021/12/28 05:24:41;;;;;;;176.90;33.38;;;5.80;99.90;;;;;;5006110;28;20156;-84
2021/12/28 05:27:07;;;;;;;133.55;31.95;;;5.20;99.90;;;;;;5005571;28;20068;-84
2021/12/28 05:29:33;;;;;;;105.80;29.70;;;5.20;99.90;;;;;;4988792;28;20164;-84
2021/12/28 05:31:59;;;;;;;318.88;41.92;;;6.60;99.90;;;;;;5005917;28;20400;-85
2021/12/28 05:34:25;;;;;;;120.35;29.63;;;5.20;99.90;;;;;;4988739;28;20034;-84
2021/12/28 05:36:50;;;;;;;118.72;30.17;;;6.20;99.90;;;;;;4992305;28;20045;-84
2021/12/28 05:39:16;;;;;;;260.08;37.63;;;6.20;99.90;;;;;;4989801;28;20041;-85
2021/12/28 05:41:42;;;;;;;82.68;26.80;;;5.20;99.90;;;;;;5007212;28;20382;-84
2021/12/28 05:44:08;;;;;;;82.25;27.85;;;5.70;99.90;;;;;;4989178;28;20076;-85
2021/12/28 05:46:33;;;;;;;151.30;31.63;;;5.90;99.90;;;;;;4991714;28;20041;-84
2021/12/28 05:48:59;;;;;;;120.15;30.02;;;5.10;99.90;;;;;;4991080;28;20037;-84
2021/12/28 05:51:25;;;;;;;78.55;26.55;;;5.10;99.90;;;;;;5006149;28;20057;-85
2021/12/28 05:53:51;;;;;;;97.88;28.23;;;5.10;99.90;;;;;;4988355;28;20044;-84
2021/12/28 05:56:17;;;;;;;97.50;27.52;;;6.20;99.90;;;;;;4994716;28;20049;-84
2021/12/28 05:58:42;;;;;;;99.05;28.50;;;6.10;99.90;;;;;;5008849;28;20044;-85
2021/12/28 06:01:08;;;;;;;103.00;29.15;;;5.10;99.90;;;;;;5006860;28;20029;-84
2021/12/28 06:03:34;;;;;;;94.25;28.17;;;5.20;99.90;;;;;;5028649;28;20037;-84
2021/12/28 06:06:00;;;;;;;105.53;28.27;;;5.20;99.90;;;;;;5027661;28;20029;-85
2021/12/28 06:08:26;;;;;;;125.22;28.20;;;6.20;99.90;;;;;;5006884;28;20577;-85
2021/12/28 06:10:52;;;;;;;132.95;30.75;;;5.60;99.90;;;;;;5005164;28;20037;-84
2021/12/28 06:13:18;;;;;;;115.30;29.50;;;6.50;99.90;;;;;;4974978;28;20067;-84
2021/12/28 06:15:44;;;;;;;73.70;25.92;;;5.60;99.90;;;;;;5015081;28;20472;-84
2021/12/28 06:18:10;;;;;;;80.47;26.23;;;5.60;99.90;;;;;;4973546;28;20120;-85
2021/12/28 06:20:35;;;;;;;91.63;27.67;;;6.00;99.90;;;;;;4985506;28;20684;-85
2021/12/28 06:23:01;;;;;;;61.20;23.38;;;5.10;99.90;;;;;;4999154;28;20036;-85
2021/12/28 06:25:27;;;;;;;72.38;24.73;;;5.10;99.90;;;;;;5002900;28;20103;-85
2021/12/28 06:27:53;;;;;;;97.82;26.13;;;6.30;99.90;;;;;;5017781;28;20041;-85
2021/12/28 06:30:19;;;;;;;75.75;25.10;;;6.50;99.90;;;;;;4969922;28;20040;-84
2021/12/28 06:32:45;;;;;;;93.68;26.95;;;5.00;99.90;;;;;;4965438;28;20037;-85
2021/12/28 06:35:11;;;;;;;57.65;23.77;;;5.00;99.90;;;;;;4984048;28;20053;-85
2021/12/28 06:37:37;;;;;;;68.45;23.23;;;5.20;99.90;;;;;;4986936;28;20041;-85
2021/12/28 06:40:05;;;;;;;80.93;24.63;;;5.00;99.90;;;;;;5002203;28;20531;-85
2021/12/28 06:42:31;;;;;;;61.25;22.70;;;5.00;99.90;;;;;;4999379;28;20037;-84
2021/12/28 06:44:57;;;;;;;63.75;22.40;;;5.10;99.90;;;;;;4991077;28;20044;-84
2021/12/28 06:47:22;;;;;;;67.88;23.15;;;5.00;99.90;;;;;;5002389;28;20116;-85
2021/12/28 06:49:48;;;;;;;67.10;23.00;;;6.00;99.90;;;;;;4966094;28;20033;-85
2021/12/28 06:52:14;;;;;;;56.50;21.85;;;4.90;99.90;;;;;;5000813;28;20049;-85
2021/12/28 06:54:40;;;;;;;64.53;23.50;;;5.00;99.90;;;;;;4998405;28;20056;-85
2021/12/28 06:57:08;;;;;;;55.13;21.15;;;5.90;99.90;;;;;;4979200;28;20041;-85
2021/12/28 06:59:43;;;;;;;64.57;23.23;;;5.60;99.90;;;;;;5006195;28;20037;-85
2021/12/28 07:02:10;;;;;;;66.32;23.13;;;6.10;99.90;;;;;;4996348;28;20045;-85
2021/12/28 07:04:36;;;;;;;60.58;22.55;;;6.50;99.90;;;;;;4997693;28;20067;-84
2021/12/28 07:07:02;;;;;;;70.93;23.05;;;5.00;99.90;;;;;;4995400;28;20045;-84
2021/12/28 07:09:28;;;;;;;75.43;24.58;;;5.00;99.90;;;;;;5018576;28;20041;-88
2021/12/28 07:11:53;;;;;;;58.72;21.88;;;5.00;99.90;;;;;;4967052;28;20040;-88
2021/12/28 07:14:19;;;;;;;63.22;23.17;;;6.30;99.90;;;;;;4961194;28;20570;-88
2021/12/28 07:16:46;;;;;;;59.17;21.35;;;4.90;99.90;;;;;;4991491;28;20045;-88
2021/12/28 07:19:12;;;;;;;60.75;21.42;;;5.40;99.90;;;;;;5013525;28;20094;-88
2021/12/28 07:21:39;;;;;;;68.53;23.73;;;5.00;99.90;;;;;;5003901;28;20037;-87
2021/12/28 07:24:07;;;;;;;78.18;23.70;;;5.60;99.90;;;;;;5005322;28;20033;-88
2021/12/28 07:26:33;;;;;;;61.92;21.40;;;4.90;99.90;;;;;;5021841;28;20040;-89
2021/12/28 07:28:59;;;;;;;53.35;20.65;;;5.00;99.90;;;;;;5004226;28;20551;-88
2021/12/28 07:31:25;;;;;;;66.10;22.10;;;4.90;99.90;;;;;;5021512;28;20037;-88
2021/12/28 07:33:50;;;;;;;60.08;22.02;;;6.20;99.90;;;;;;4987110;28;20045;-87
2021/12/28 07:36:16;;;;;;;53.80;20.10;;;5.60;99.90;;;;;;5000115;28;20079;-88
2021/12/28 07:38:42;;;;;;;54.20;19.85;;;5.60;99.90;;;;;;5017728;28;20041;-88
2021/12/28 07:41:08;;;;;;;52.63;20.27;;;4.90;99.90;;;;;;4999982;28;20512;-88
2021/12/28 07:43:33;;;;;;;52.50;20.20;;;4.90;99.90;;;;;;4995981;28;20037;-89
2021/12/28 07:45:59;;;;;;;47.55;19.30;;;4.90;99.90;;;;;;4995763;28;20063;-88
2021/12/28 07:48:25;;;;;;;52.42;19.33;;;5.00;99.90;;;;;;5000074;28;20099;-88
2021/12/28 07:50:50;;;;;;;46.40;18.67;;;5.00;99.90;;;;;;5016894;28;20131;-87
2021/12/28 07:53:16;;;;;;;45.85;18.73;;;5.80;99.90;;;;;;5016071;28;20049;-88
2021/12/28 07:55:42;;;;;;;162.95;25.50;;;5.90;99.90;;;;;;5004228;28;20406;-89
2021/12/28 07:58:08;;;;;;;53.33;20.10;;;5.10;99.90;;;;;;5017113;28;20144;-86
2021/12/28 08:00:34;;;;;;;47.40;18.02;;;5.10;99.90;;;;;;5016522;28;20087;-88
2021/12/28 08:03:03;;;;;;;73.03;21.02;;;5.70;99.90;;;;;;5041847;28;20037;-89
2021/12/28 08:05:30;;;;;;;42.08;17.05;;;5.90;99.90;;;;;;5017522;28;20033;-88
2021/12/28 08:07:55;;;;;;;46.20;18.15;;;6.90;99.90;;;;;;4996548;28;20037;-87
2021/12/28 08:10:22;;;;;;;44.05;17.55;;;5.20;99.90;;;;;;5018259;28;20132;-88
2021/12/28 08:12:49;;;;;;;36.97;16.10;;;6.20;99.90;;;;;;5000903;28;20466;-88
2021/12/28 08:15:16;;;;;;;39.70;16.73;;;5.20;99.90;;;;;;5001605;28;20061;-86
2021/12/28 08:17:42;;;;;;;39.08;16.58;;;6.10;99.90;;;;;;5005781;28;20053;-88
2021/12/28 08:20:10;;;;;;;33.90;16.00;;;5.20;99.90;;;;;;5033067;28;20033;-88
2021/12/28 08:22:36;;;;;;;33.28;15.07;;;5.20;99.90;;;;;;5016158;28;20029;-89
2021/12/28 08:25:04;;;;;;;32.97;14.15;;;5.30;99.90;;;;;;5016297;28;20040;-88
2021/12/28 08:27:30;;;;;;;32.10;14.65;;;5.20;99.90;;;;;;4998455;28;20041;-88
2021/12/28 08:29:56;;;;;;;28.77;13.38;;;5.20;99.90;;;;;;5013851;28;20030;-89
2021/12/28 08:32:23;;;;;;;32.08;14.35;;;5.80;99.90;;;;;;5022529;28;20147;-88
2021/12/28 08:34:49;;;;;;;34.60;14.50;;;5.20;99.90;;;;;;5018783;28;20441;-89
2021/12/28 08:37:15;;;;;;;32.20;13.10;;;5.30;99.90;;;;;;5015809;28;20037;-88
2021/12/28 08:39:41;;;;;;;28.55;12.05;;;5.30;99.90;;;;;;5016158;28;20063;-89
2021/12/28 08:42:08;;;;;;;27.05;11.98;;;5.40;99.90;;;;;;5004942;28;20087;-89
2021/12/28 08:44:34;;;;;;;29.52;11.88;;;5.40;99.90;;;;;;4999058;28;20029;-87
2021/12/28 08:47:00;;;;;;;28.73;11.50;;;5.50;99.90;;;;;;5016701;28;20029;-89
2021/12/28 08:49:27;;;;;;;28.98;11.63;;;6.90;99.90;;;;;;5010630;28;20405;-90
2021/12/28 08:51:54;;;;;;;25.38;10.68;;;5.50;99.90;;;;;;5010271;28;20045;-89
2021/12/28 08:54:20;;;;;;;25.40;10.52;;;5.50;99.90;;;;;;5026360;28;20095;-89
2021/12/28 08:56:46;;;;;;;26.63;11.23;;;5.60;99.90;;;;;;5018243;28;20033;-89
2021/12/28 08:59:13;;;;;;;35.78;10.85;;;5.60;99.90;;;;;;5016876;28;20033;-90
2021/12/28 09:01:39;;;;;;;23.85;10.90;;;5.60;99.90;;;;;;5014267;28;21020;-89
2021/12/28 09:04:05;;;;;;;28.90;10.48;;;5.60;99.90;;;;;;5032346;28;20041;-89
2021/12/28 09:06:31;;;;;;;25.90;10.43;;;6.40;99.90;;;;;;4982377;28;20430;-91
2021/12/28 09:08:57;;;;;;;23.55;10.77;;;6.60;99.90;;;;;;4997736;28;20040;-90
2021/12/28 09:11:23;;;;;;;24.27;10.10;;;6.80;99.90;;;;;;4995150;28;20115;-91
2021/12/28 09:13:50;;;;;;;29.42;10.13;;;6.80;99.90;;;;;;5011763;28;20122;-93
2021/12/28 09:16:16;;;;;;;25.42;10.57;;;6.00;99.90;;;;;;5022533;28;20063;-87
2021/12/28 09:18:42;;;;;;;23.00;9.35;;;7.10;99.90;;;;;;5018825;28;21750;-93
2021/12/28 09:21:08;;;;;;;23.17;9.70;;;7.00;99.90;;;;;;5018846;28;20045;-91
2021/12/28 09:23:34;;;;;;;23.77;9.77;;;6.00;99.90;;;;;;5020387;28;20075;-89
2021/12/28 09:26:00;;;;;;;25.27;9.93;;;5.90;99.90;;;;;;5017852;28;20041;-91
2021/12/28 09:28:26;;;;;;;19.88;8.90;;;7.40;99.90;;;;;;5025205;28;20512;-89
2021/12/28 09:30:52;;;;;;;25.35;9.90;;;6.00;99.90;;;;;;4993242;28;20041;-91
2021/12/28 09:33:19;;;;;;;24.05;9.35;;;6.10;99.90;;;;;;5018958;28;20059;-90
2021/12/28 09:35:45;;;;;;;20.60;8.95;;;6.10;99.90;;;;;;4992367;28;20552;-93
2021/12/28 09:38:11;;;;;;;24.13;9.00;;;6.20;99.90;;;;;;5017828;28;20041;-93
2021/12/28 09:40:39;;;;;;;23.45;8.70;;;6.20;99.90;;;;;;5030588;28;20517;-92
2021/12/28 09:43:08;;;;;;;24.27;8.98;;;6.10;99.90;;;;;;5038427;28;20465;-94
2021/12/28 09:45:35;;;;;;;22.58;8.60;;;6.20;99.90;;;;;;5035800;28;20036;-93
2021/12/28 09:48:01;;;;;;;20.55;7.90;;;6.20;99.90;;;;;;5021925;28;20068;-94
2021/12/28 09:50:30;;;;;;;22.15;8.63;;;6.20;99.90;;;;;;5019357;28;20037;-95
2021/12/28 09:52:55;;;;;;;21.67;7.70;;;6.20;99.90;;;;;;5003046;28;20037;-93
2021/12/28 09:55:23;;;;;;;24.10;8.52;;;7.20;99.90;;;;;;4997987;28;20041;-92
2021/12/28 09:57:53;;;;;;;24.98;8.75;;;6.20;99.90;;;;;;5021220;28;20496;-94
2021/12/28 10:00:23;;;;;;;23.65;8.75;;;6.20;99.90;;;;;;5028146;28;20179;-94
2021/12/28 10:02:50;;;;;;;24.38;7.78;;;6.20;99.90;;;;;;5033544;28;20048;-87
2021/12/28 10:05:20;;;;;;;24.35;8.25;;;7.30;99.90;;;;;;4994418;28;20130;-85
2021/12/28 10:07:56;;;;;;;20.05;7.70;;;7.30;99.90;;;;;;5006530;28;20048;-89
2021/12/28 10:10:27;;;;;;;26.83;8.50;;;6.80;99.90;;;;;;5013803;28;20040;-86
2021/12/28 10:12:56;;;;;;;22.90;7.90;;;6.30;99.90;;;;;;5017037;28;20040;-86
2021/12/28 10:15:26;;;;;;;24.27;7.93;;;6.40;99.90;;;;;;5011494;28;20053;-86
2021/12/28 10:17:55;;;;;;;25.42;7.75;;;6.30;99.90;;;;;;5031931;28;20045;-85
2021/12/28 10:20:23;;;;;;;22.17;7.40;;;6.30;99.90;;;;;;5032961;28;20047;-86
2021/12/28 10:22:56;;;;;;;21.27;7.72;;;6.40;99.90;;;;;;5016148;28;20033;-86
2021/12/28 10:25:23;;;;;;;;;;;6.40;99.90;;;;;;5016452;28;20544;-85
2021/12/28 10:27:57;;;;;;;21.10;7.45;;;6.40;99.90;;;;;;5034041;28;20003;-86
2021/12/28 10:30:26;;;;;;;21.58;7.70;;;7.30;99.90;;;;;;5040938;28;20049;-87
2021/12/28 10:32:58;;;;;;;19.90;6.60;;;6.40;99.90;;;;;;5032295;28;20124;-87
2021/12/28 10:35:30;;;;;;;22.77;7.05;;;7.30;99.90;;;;;;5032722;28;20040;-86
2021/12/28 10:38:04;;;;;;;29.05;7.82;;;7.40;99.90;;;;;;5015382;28;20037;-85
2021/12/28 10:40:33;;;;;;;19.52;6.70;;;6.40;99.90;;;;;;5016677;28;20040;-86
2021/12/28 10:43:04;;;;;;;21.88;7.55;;;6.50;99.90;;;;;;5016893;28;20079;-86
2021/12/28 10:45:51;;;;;;;22.40;7.50;;;7.40;99.90;;;;;;5017743;28;20043;-86
2021/12/28 10:48:30;;;;;;;24.05;6.60;;;7.40;99.90;;;;;;5016161;28;20037;-86
2021/12/28 10:51:09;;;;;;;23.15;7.60;;;7.50;99.90;;;;;;5017253;28;20169;-86
2021/12/28 10:54:01;;;;;;;19.08;6.95;;;7.10;99.90;;;;;;5030304;28;20044;-85
2021/12/28 10:56:29;;;;;;;20.65;6.68;;;6.70;99.90;;;;;;5033231;28;20060;-86
2021/12/28 10:58:55;;;;;;;24.08;6.50;;;6.70;99.90;;;;;;5035476;28;20068;-86
2021/12/28 11:01:32;;;;;;;18.38;7.25;;;7.70;99.90;;;;;;5029081;28;20042;-84
2021/12/28 11:04:05;;;;;;;19.25;6.72;;;6.70;99.90;;;;;;5030613;28;20041;-86
2021/12/28 11:06:34;;;;;;;19.38;6.63;;;6.70;99.90;;;;;;5014575;28;20123;-88
2021/12/28 11:09:08;;;;;;;21.83;6.45;;;7.60;99.90;;;;;;5014628;28;20041;-87
2021/12/28 11:11:35;;;;;;;25.30;7.53;;;6.70;99.90;;;;;;5013667;28;20442;-87
2021/12/28 11:14:05;;;;;;;22.85;7.18;;;6.70;99.90;;;;;;5017622;28;20040;-88
2021/12/28 11:16:33;;;;;;;24.60;7.32;;;6.80;99.90;;;;;;5033889;28;20053;-88
2021/12/28 11:19:04;;;;;;;20.48;6.60;;;7.50;99.90;;;;;;5000723;28;20485;-88
2021/12/28 11:21:36;;;;;;;25.25;7.38;;;6.80;99.90;;;;;;5016408;28;20045;-87
2021/12/28 11:24:14;;;;;;;20.27;6.88;;;6.80;99.90;;;;;;5018248;28;20044;-87
2021/12/28 11:26:43;;;;;;;23.77;7.75;;;6.80;99.90;;;;;;5017671;28;20508;-88
2021/12/28 11:29:15;;;;;;;20.15;7.18;;;6.80;99.90;;;;;;5017685;28;20659;-87
2021/12/28 11:32:04;;;;;;;23.35;7.47;;;6.80;99.90;;;;;;5017075;28;20128;-88
2021/12/28 11:34:32;;;;;;;19.50;7.25;;;6.80;99.90;;;;;;5034329;28;20045;-87
2021/12/28 11:37:08;;;;;;;18.33;6.82;;;6.90;99.90;;;;;;5017746;28;20389;-87
2021/12/28 11:39:40;;;;;;;23.95;7.90;;;6.90;99.90;;;;;;5018234;28;20052;-87
2021/12/28 11:42:07;;;;;;;22.65;8.50;;;7.60;99.90;;;;;;5017432;28;20390;-88
2021/12/28 11:44:35;;;;;;;21.50;8.15;;;6.90;99.90;;;;;;5001431;28;20045;-88
2021/12/28 11:47:03;;;;;;;17.58;7.03;;;8.30;99.90;;;;;;5034339;28;20063;-88
2021/12/28 11:49:30;;;;;;;18.65;7.15;;;6.90;99.90;;;;;;5017800;28;20041;-88
2021/12/28 11:52:03;;;;;;;17.70;7.22;;;7.70;99.90;;;;;;5017549;28;20509;-88
2021/12/28 11:54:30;;;;;;;;;;;6.90;99.90;;;;;;5034609;28;20037;-87
2021/12/28 11:57:04;;;;;;;19.63;7.28;;;7.00;99.90;;;;;;5014652;28;20038;-88
2021/12/28 11:59:32;;;;;;;22.45;8.57;;;7.00;99.90;;;;;;5012405;28;20041;-88
2021/12/28 12:02:02;;;;;;;21.83;8.60;;;7.00;99.90;;;;;;5015014;28;20045;-89
2021/12/28 12:04:30;;;;;;;23.88;9.40;;;7.00;99.90;;;;;;5016299;28;20608;-88
2021/12/28 12:07:04;;;;;;;20.55;8.27;;;7.10;99.90;;;;;;5013431;28;20047;-86
2021/12/28 12:09:32;;;;;;;19.50;8.60;;;7.10;99.90;;;;;;5028422;28;20045;-87
2021/12/28 12:12:13;;;;;;;22.17;7.95;;;7.10;99.90;;;;;;5012598;28;20045;-86
2021/12/28 12:14:51;;;;;;;19.13;8.65;;;7.30;99.90;;;;;;5030365;28;20132;-87
2021/12/28 12:17:34;;;;;;;18.52;7.75;;;7.80;99.90;;;;;;5014558;28;20203;-87
2021/12/28 12:20:03;;;;;;;;;;;7.10;99.90;;;;;;5014064;28;20045;-87
2021/12/28 12:22:31;;;;;;;21.98;8.52;;;7.10;99.90;;;;;;5014843;28;20519;-87
2021/12/28 12:25:11;;;;;;;19.73;8.27;;;7.20;99.90;;;;;;5031435;28;20041;-86
2021/12/28 12:27:50;;;;;;;23.60;9.30;;;7.20;99.90;;;;;;5015091;28;20068;-86
2021/12/28 12:30:24;;;;;;;19.73;8.50;;;7.20;99.90;;;;;;5022413;28;20064;-86
2021/12/28 12:33:05;;;;;;;21.40;8.65;;;7.20;99.90;;;;;;5014971;28;20037;-87
2021/12/28 12:35:58;;;;;;;19.27;8.23;;;7.20;99.90;;;;;;5015560;28;20044;-86
2021/12/28 12:38:27;;;;;;;20.58;8.25;;;7.20;99.90;;;;;;5048544;28;20047;-87
2021/12/28 12:40:59;;;;;;;15.45;8.43;;;8.20;99.90;;;;;;5028658;28;20076;-87
2021/12/28 12:43:26;;;;;;;20.27;8.38;;;7.20;99.90;;;;;;5012719;28;20120;-87
2021/12/28 12:45:52;;;;;;;16.85;8.07;;;7.30;99.90;;;;;;5029243;28;20033;-86